Time;durP1;ratioP1;P1;durP2;ratioP2;P2;SDS_P1;SDS_P2;PMS_P1;PMS_P2;Temp;Humidity;BMP_temperature;BMP_pressure;BME280_temperature;BME280_humidity;BME280_pressure;Samples;Min_cycle;Max_cycle;Signal;HPM_P1;HPM_P2
2021/11/10 00:00:21;;;;;;;53.70;28.90;;;;;;;1.94;72.40;101775.39;130027;1287;108767;-77
2021/11/10 00:03:44;;;;;;;58.40;30.50;;;;;;;1.92;72.32;101768.98;129932;1286;110426;-79
2021/11/10 00:06:46;;;;;;;61.70;32.00;;;;;;;1.86;72.21;101763.77;129882;1286;97303;-79
2021/11/10 00:09:49;;;;;;;59.40;30.10;;;;;;;1.84;72.53;101759.85;129931;1287;96655;-79
2021/11/10 00:12:52;;;;;;;52.60;26.70;;;;;;;1.85;72.38;101758.90;129949;1287;96736;-78
2021/11/10 00:15:55;;;;;;;62.50;30.70;;;;;;;1.87;72.37;101751.62;129918;1286;97622;-78
2021/11/10 00:18:57;;;;;;;58.10;30.80;;;;;;;1.91;72.53;101738.83;129920;1287;97103;-81
2021/11/10 00:22:00;;;;;;;55.70;28.40;;;;;;;1.96;72.68;101728.98;129901;1286;97451;-79
2021/11/10 00:25:06;;;;;;;47.80;27.60;;;;;;;1.99;72.89;101726.59;129944;1287;96681;-80
2021/11/10 00:28:08;;;;;;;46.90;26.50;;;;;;;1.98;72.74;101726.27;129946;1287;107728;-80
2021/11/10 00:31:12;;;;;;;53.50;29.40;;;;;;;1.93;72.44;101722.42;129903;1287;96661;-77
2021/11/10 00:34:15;;;;;;;50.00;26.20;;;;;;;1.90;72.43;101725.90;129883;1286;108656;-79
2021/11/10 00:37:17;;;;;;;138.60;55.70;;;;;;;1.84;72.21;101728.05;130065;1287;97204;-80
2021/11/10 00:40:20;;;;;;;186.50;70.60;;;;;;;1.79;72.28;101731.44;130066;1287;97768;-77
2021/11/10 00:43:23;;;;;;;114.70;47.30;;;;;;;1.73;72.16;101734.27;129888;1287;96717;-77
2021/11/10 00:46:25;;;;;;;75.50;34.50;;;;;;;1.68;72.26;101735.02;129869;1286;97201;-76
2021/11/10 00:49:28;;;;;;;67.30;30.30;;;;;;;1.65;72.22;101738.44;129929;1287;97336;-76
2021/11/10 00:52:32;;;;;;;56.00;28.00;;;;;;;1.65;72.13;101739.85;129869;1287;97808;-79
2021/11/10 00:55:36;;;;;;;59.60;29.80;;;;;;;1.66;72.21;101740.37;130072;1286;97104;-81
2021/11/10 00:58:40;;;;;;;52.50;28.00;;;;;;;1.69;72.16;101749.72;130331;1287;108688;-81
2021/11/10 01:01:43;;;;;;;64.10;30.60;;;;;;;1.68;71.92;101761.85;130285;1287;107333;-80
2021/11/10 01:04:46;;;;;;;56.70;28.40;;;;;;;1.66;71.93;101760.33;129960;1287;107618;-77
2021/11/10 01:07:49;;;;;;;61.50;29.70;;;;;;;1.61;71.96;101755.62;129866;1285;108937;-77
2021/11/10 01:10:52;;;;;;;58.10;29.30;;;;;;;1.57;72.08;101752.61;129891;1286;96652;-76
2021/11/10 01:13:55;;;;;;;57.10;29.00;;;;;;;1.55;72.16;101750.42;129758;1286;97686;-75
2021/11/10 01:16:58;;;;;;;57.80;29.60;;;;;;;1.51;71.91;101752.49;129945;1287;97706;-76
2021/11/10 01:20:01;;;;;;;64.00;30.80;;;;;;;1.47;72.17;101753.00;129893;1286;96745;-76
2021/11/10 01:23:08;;;;;;;61.30;30.10;;;;;;;1.45;72.08;101758.69;129885;1287;108747;-78
2021/11/10 01:26:10;;;;;;;60.90;29.70;;;;;;;1.40;72.08;101766.57;129747;1287;107839;-79
2021/11/10 01:29:14;;;;;;;60.10;27.80;;;;;;;1.38;72.11;101759.83;129863;1286;107795;-80
2021/11/10 01:32:16;;;;;;;53.10;26.90;;;;;;;1.37;72.13;101756.17;129892;1285;97420;-79
2021/11/10 01:35:21;;;;;;;43.30;21.00;;;;;;;1.39;72.28;101752.95;129898;1287;105634;-76
2021/11/10 01:38:24;;;;;;;48.10;23.40;;;;;;;1.41;72.30;101748.83;129937;1286;108666;-80
2021/11/10 01:41:27;;;;;;;46.90;25.50;;;;;;;1.41;72.49;101752.19;129907;1287;96735;-79
2021/11/10 01:44:32;;;;;;;43.60;24.20;;;;;;;1.44;72.46;101752.21;129895;1287;97412;-78
2021/11/10 01:47:35;;;;;;;45.50;23.50;;;;;;;1.47;72.72;101752.28;129913;1286;108712;-76
2021/11/10 01:50:40;;;;;;;44.60;23.00;;;;;;;1.50;72.74;101752.18;129938;1286;107706;-75
2021/11/10 01:53:44;;;;;;;42.10;23.80;;;;;;;1.49;72.60;101746.78;129937;1287;108660;-77
2021/11/10 01:56:48;;;;;;;39.90;23.50;;;;;;;1.46;72.60;101739.53;129885;1287;108612;-77
2021/11/10 02:00:06;;;;;;;44.50;22.10;;;;;;;1.46;72.96;101734.77;129666;1287;108592;-76
2021/11/10 02:03:22;;;;;;;48.80;22.20;;;;;;;1.46;73.22;101731.81;129819;1287;108540;-77
2021/11/10 02:06:25;;;;;;;44.80;23.10;;;;;;;1.47;73.31;101719.48;129919;1286;97168;-76
2021/11/10 02:09:43;;;;;;;33.50;16.50;;;;;;;1.53;73.55;101718.20;129926;1287;107715;-76
2021/11/10 02:12:48;;;;;;;36.70;17.70;;;;;;;1.62;73.82;101717.16;129943;1287;107758;-76
2021/11/10 02:15:52;;;;;;;34.90;17.90;;;;;;;1.73;74.01;101716.05;129934;1287;105339;-76
2021/11/10 02:18:55;;;;;;;37.40;19.30;;;;;;;1.83;73.90;101717.41;129901;1287;107675;-78
2021/11/10 02:22:01;;;;;;;35.80;18.40;;;;;;;1.88;74.01;101710.18;129895;1286;108673;-83
2021/11/10 02:25:08;;;;;;;36.70;19.20;;;;;;;1.91;73.99;101703.73;129762;1287;107751;-83
2021/11/10 02:28:11;;;;;;;34.70;18.70;;;;;;;1.90;74.17;101697.45;129863;1287;108616;-84
2021/11/10 02:31:14;;;;;;;40.90;20.30;;;;;;;1.90;74.09;101694.11;130027;1287;97819;-79
2021/11/10 02:34:18;;;;;;;35.20;18.10;;;;;;;1.92;74.20;101680.02;129922;1287;97422;-78
2021/11/10 02:37:22;;;;;;;29.50;16.30;;;;;;;1.94;74.33;101670.79;129912;1287;107709;-79
2021/11/10 02:40:26;;;;;;;37.80;18.60;;;;;;;2.02;74.58;101663.11;129962;1287;108776;-78
2021/11/10 02:43:30;;;;;;;36.20;17.90;;;;;;;2.12;74.64;101661.83;129792;1287;107767;-81
2021/11/10 02:46:33;;;;;;;29.50;17.30;;;;;;;2.20;74.61;101665.87;130035;1287;108532;-80
2021/11/10 02:49:36;;;;;;;32.80;17.90;;;;;;;2.23;74.37;101673.30;129903;1287;97818;-80
2021/11/10 02:52:39;;;;;;;33.60;18.60;;;;;;;2.20;74.45;101676.57;129915;1287;97140;-80
2021/11/10 02:55:43;;;;;;;35.20;18.50;;;;;;;2.18;74.54;101679.30;129988;1287;96703;-78
2021/11/10 02:58:45;;;;;;;38.30;19.40;;;;;;;2.17;74.75;101677.23;129894;1286;107533;-81
2021/11/10 03:01:49;;;;;;;37.50;18.60;;;;;;;2.15;74.81;101680.29;129828;1287;96722;-80
2021/11/10 03:04:53;;;;;;;30.90;16.40;;;;;;;2.18;74.65;101679.81;130009;1286;107663;-81
2021/11/10 03:07:57;;;;;;;35.00;17.80;;;;;;;2.23;74.82;101680.16;130079;1287;108688;-81
2021/11/10 03:11:00;;;;;;;32.90;17.50;;;;;;;2.28;74.81;101678.20;129923;1285;108592;-78
2021/11/10 03:14:03;;;;;;;32.80;17.30;;;;;;;2.29;74.83;101673.55;129990;1284;108779;-80
2021/11/10 03:17:08;;;;;;;32.90;17.80;;;;;;;2.30;74.92;101671.40;130024;1287;97094;-78
2021/11/10 03:20:12;;;;;;;35.20;18.30;;;;;;;2.31;74.84;101666.64;129756;1286;109250;-74
2021/11/10 03:23:17;;;;;;;33.30;18.70;;;;;;;2.29;74.95;101677.08;129948;1286;107720;-75
2021/11/10 03:26:22;;;;;;;37.20;19.40;;;;;;;2.27;75.07;101675.77;129881;1286;108810;-77
2021/11/10 03:29:26;;;;;;;35.00;18.10;;;;;;;2.24;75.02;101680.98;129908;1286;107741;-80
2021/11/10 03:32:29;;;;;;;29.80;15.70;;;;;;;2.23;75.29;101674.70;129987;1287;108530;-79
2021/11/10 03:35:33;;;;;;;34.60;18.90;;;;;;;2.29;75.54;101676.71;129975;1286;108610;-78
2021/11/10 03:38:37;;;;;;;30.70;17.30;;;;;;;2.37;75.46;101669.52;129879;1285;108606;-79
2021/11/10 03:41:42;;;;;;;33.30;18.10;;;;;;;2.41;75.44;101672.73;129931;1285;107745;-79
2021/11/10 03:44:45;;;;;;;34.20;18.90;;;;;;;2.43;75.35;101675.42;129913;1286;108664;-76
2021/11/10 03:47:49;;;;;;;36.00;18.70;;;;;;;2.43;75.59;101670.68;129891;1286;109163;-74
2021/11/10 03:50:52;;;;;;;41.80;21.00;;;;;;;2.43;75.41;101664.40;129879;1286;97174;-74
2021/11/10 03:53:58;;;;;;;37.20;19.20;;;;;;;2.40;75.52;101662.04;129949;1285;108624;-75
2021/11/10 03:57:02;;;;;;;29.10;16.10;;;;;;;2.39;75.49;101659.27;129893;1286;108635;-75
2021/11/10 04:00:08;;;;;;;32.30;17.40;;;;;;;2.40;75.42;101654.33;129956;1287;108638;-73
2021/11/10 04:03:17;;;;;;;35.30;18.70;;;;;;;2.42;75.44;101647.73;129795;1287;108666;-76
2021/11/10 04:06:20;;;;;;;35.90;19.10;;;;;;;2.44;75.58;101645.70;129890;1286;108962;-79
2021/11/10 04:09:24;;;;;;;34.70;18.20;;;;;;;2.47;75.56;101654.19;129951;1285;108564;-77
2021/11/10 04:12:26;;;;;;;36.20;19.30;;;;;;;2.47;75.57;101651.73;129892;1287;97291;-76
2021/11/10 04:15:29;;;;;;;34.30;19.50;;;;;;;2.43;75.62;101646.98;129663;1287;97102;-76
2021/11/10 04:18:33;;;;;;;40.40;20.50;;;;;;;2.41;75.65;101642.17;129862;1286;96722;-75
2021/11/10 04:21:40;;;;;;;36.70;19.20;;;;;;;2.39;75.75;101634.52;129888;1284;108603;-75
2021/11/10 04:24:43;;;;;;;29.90;16.60;;;;;;;2.38;75.67;101625.45;129928;1287;107693;-77
2021/11/10 04:27:48;;;;;;;36.40;18.70;;;;;;;2.37;75.89;101626.69;129820;1287;108712;-76
2021/11/10 04:30:53;;;;;;;35.50;18.30;;;;;;;2.39;75.80;101619.76;129929;1286;108624;-75
2021/11/10 04:33:57;;;;;;;35.20;19.60;;;;;;;2.40;75.84;101613.22;129814;1287;108699;-75
2021/11/10 04:37:01;;;;;;;35.20;19.40;;;;;;;2.40;75.86;101602.16;129927;1286;108560;-76
2021/11/10 04:40:09;;;;;;;38.10;19.50;;;;;;;2.40;76.03;101597.41;129902;1286;108663;-78
2021/11/10 04:43:12;;;;;;;52.80;24.30;;;;;;;2.38;76.13;101597.48;129709;1287;107592;-78
2021/11/10 04:46:25;;;;;;;40.20;21.40;;;;;;;2.36;76.26;101598.83;129892;1287;108627;-78
2021/11/10 04:49:29;;;;;;;34.90;17.20;;;;;;;2.36;76.22;101593.90;129929;1284;107702;-77
2021/11/10 04:52:32;;;;;;;33.70;19.00;;;;;;;2.40;76.44;101588.81;129880;1285;107670;-77
2021/11/10 04:55:34;;;;;;;33.60;19.50;;;;;;;2.43;76.38;101586.58;129973;1286;96670;-73
2021/11/10 04:58:38;;;;;;;37.30;19.70;;;;;;;2.48;76.41;101583.38;129937;1286;108709;-76
2021/11/10 05:01:43;;;;;;;36.30;20.00;;;;;;;2.50;76.51;101585.56;129871;1286;107671;-75
2021/11/10 05:04:47;;;;;;;38.30;21.30;;;;;;;2.49;76.61;101579.30;129700;1286;108676;-76
2021/11/10 05:07:51;;;;;;;38.30;19.60;;;;;;;2.48;76.56;101571.25;129886;1287;107791;-76
2021/11/10 05:10:54;;;;;;;30.20;16.20;;;;;;;2.48;76.58;101564.03;129932;1286;108728;-73
2021/11/10 05:13:58;;;;;;;31.90;17.60;;;;;;;2.51;76.52;101565.13;129934;1286;108598;-75
2021/11/10 05:17:01;;;;;;;34.00;18.80;;;;;;;2.52;76.48;101563.33;129979;1287;96685;-76
2021/11/10 05:20:06;;;;;;;34.40;19.50;;;;;;;2.51;76.34;101560.58;129902;1286;96646;-76
2021/11/10 05:23:09;;;;;;;34.60;19.20;;;;;;;2.47;76.46;101564.95;129692;1286;109847;-75
2021/11/10 05:26:11;;;;;;;33.70;19.00;;;;;;;2.45;76.40;101567.89;129872;1287;97270;-74
2021/11/10 05:29:14;;;;;;;37.70;20.10;;;;;;;2.39;76.20;101569.88;129936;1284;96745;-76
2021/11/10 05:32:17;;;;;;;34.00;19.30;;;;;;;2.36;76.31;101575.63;130055;1286;97493;-77
2021/11/10 05:35:20;;;;;;;35.40;17.50;;;;;;;2.36;76.28;101574.07;130047;1286;97713;-75
2021/11/10 05:38:23;;;;;;;33.90;18.10;;;;;;;2.34;76.07;101581.16;129993;1286;98542;-77
2021/11/10 05:41:25;;;;;;;32.30;18.40;;;;;;;2.31;75.97;101592.34;130007;1285;96650;-76
2021/11/10 05:44:28;;;;;;;32.70;18.90;;;;;;;2.25;75.90;101594.92;130158;1286;97307;-75
2021/11/10 05:47:31;;;;;;;31.00;18.10;;;;;;;2.21;76.10;101588.56;130029;1287;96651;-74
2021/11/10 05:50:34;;;;;;;31.50;18.30;;;;;;;2.21;76.18;101589.11;130119;1286;96652;-76
2021/11/10 05:53:42;;;;;;;34.20;19.30;;;;;;;2.19;76.19;101590.42;129980;1287;96666;-75
2021/11/10 05:56:47;;;;;;;35.70;19.20;;;;;;;2.14;76.04;101594.83;129982;1286;107324;-73
2021/11/10 05:59:49;;;;;;;35.60;18.70;;;;;;;2.10;76.12;101595.89;130266;1286;108787;-77
2021/11/10 06:02:52;;;;;;;30.40;15.60;;;;;;;2.10;76.14;101594.66;129984;1287;97359;-80
2021/11/10 06:05:55;;;;;;;34.90;19.00;;;;;;;2.15;76.34;101585.70;130302;1287;97750;-79
2021/11/10 06:08:57;;;;;;;32.60;18.70;;;;;;;2.22;76.25;101586.80;129887;1285;96719;-80
2021/11/10 06:12:00;;;;;;;34.80;18.70;;;;;;;2.25;76.16;101588.77;129906;1286;96725;-80
2021/11/10 06:15:04;;;;;;;31.20;18.30;;;;;;;2.27;76.16;101587.11;129926;1286;97644;-77
2021/11/10 06:18:07;;;;;;;34.20;19.90;;;;;;;2.27;76.17;101589.00;130071;1284;96650;-74
2021/11/10 06:21:10;;;;;;;35.90;20.30;;;;;;;2.28;76.32;101591.58;129928;1286;97730;-76
2021/11/10 06:24:14;;;;;;;38.40;21.00;;;;;;;2.28;76.37;101597.05;129958;1285;96658;-76
2021/11/10 06:27:16;;;;;;;38.70;20.70;;;;;;;2.28;76.39;101601.42;129751;1284;108678;-80
2021/11/10 06:30:19;;;;;;;34.10;18.50;;;;;;;2.30;76.39;101603.09;130006;1284;96726;-80
2021/11/10 06:33:22;;;;;;;36.50;20.10;;;;;;;2.35;76.44;101603.77;129996;1286;97451;-75
2021/11/10 06:36:24;;;;;;;35.90;19.70;;;;;;;2.41;76.45;101596.30;129633;1287;97400;-77
2021/11/10 06:39:27;;;;;;;35.40;19.50;;;;;;;2.48;76.35;101595.65;129870;1286;96664;-81
2021/11/10 06:42:33;;;;;;;34.90;19.30;;;;;;;2.51;76.27;101601.14;130197;1287;96679;-80
2021/11/10 06:45:35;;;;;;;34.70;19.90;;;;;;;2.53;76.23;101602.81;130028;1286;108558;-81
2021/11/10 06:48:38;;;;;;;39.50;21.00;;;;;;;2.52;76.32;101598.13;129926;1286;97308;-78
2021/11/10 06:51:41;;;;;;;35.60;19.40;;;;;;;2.56;76.54;101605.32;130180;1287;97730;-77
2021/11/10 06:54:43;;;;;;;48.20;23.00;;;;;;;2.61;76.48;101613.18;129958;1287;96717;-78
2021/11/10 06:57:46;;;;;;;36.80;20.50;;;;;;;2.69;76.59;101614.21;129911;1286;97394;-79
2021/11/10 07:00:49;;;;;;;38.80;21.50;;;;;;;2.80;76.69;101619.68;129918;1285;96748;-81
2021/11/10 07:03:52;;;;;;;35.40;19.30;;;;;;;2.91;76.55;101615.87;129925;1286;96655;-82
2021/11/10 07:06:54;;;;;;;35.60;19.10;;;;;;;2.99;76.57;101620.27;129936;1286;96751;-81
2021/11/10 07:09:57;;;;;;;34.70;19.70;;;;;;;3.06;76.49;101622.02;129899;1285;97057;-80
2021/11/10 07:13:00;;;;;;;38.30;21.80;;;;;;;3.11;76.52;101617.59;129990;1285;97754;-81
2021/11/10 07:16:03;;;;;;;48.90;26.20;;;;;;;3.19;76.53;101613.49;129824;1287;96614;-82
2021/11/10 07:19:06;;;;;;;39.00;21.20;;;;;;;3.27;76.47;101607.86;129980;1286;97748;-79
2021/11/10 07:22:08;;;;;;;37.40;21.70;;;;;;;3.37;76.54;101605.64;129879;1287;96680;-78
2021/11/10 07:25:11;;;;;;;35.90;19.20;;;;;;;3.48;76.47;101601.05;129830;1286;96659;-79
2021/11/10 07:28:14;;;;;;;32.60;18.70;;;;;;;3.55;76.38;101599.67;129915;1286;97722;-82
2021/11/10 07:31:17;;;;;;;30.30;17.50;;;;;;;3.56;76.23;101601.18;129977;1287;96658;-79
2021/11/10 07:34:19;;;;;;;44.90;23.90;;;;;;;3.60;76.13;101602.44;129853;1286;97187;-76
2021/11/10 07:37:22;;;;;;;31.80;18.30;;;;;;;3.62;76.25;101608.83;129845;1287;97754;-78
2021/11/10 07:40:25;;;;;;;32.20;18.70;;;;;;;3.63;76.34;101608.44;129892;1286;97413;-85
2021/11/10 07:43:28;;;;;;;34.10;18.60;;;;;;;3.68;76.32;101607.63;129810;1278;220539;-84
2021/11/10 07:46:32;;;;;;;34.00;20.30;;;;;;;3.78;76.33;101606.98;129995;1286;96663;-81
2021/11/10 07:49:34;;;;;;;47.20;27.70;;;;;;;3.89;76.29;101603.09;130001;1286;97432;-81
2021/11/10 07:52:37;;;;;;;54.20;31.40;;;;;;;3.96;76.37;101604.88;129982;1287;96668;-81
2021/11/10 07:55:40;;;;;;;62.40;36.20;;;;;;;4.03;76.33;101599.05;129987;1286;96643;-80
2021/11/10 07:58:43;;;;;;;66.70;38.20;;;;;;;4.06;76.38;101588.13;130120;1286;97842;-80
2021/11/10 08:01:46;;;;;;;65.20;37.40;;;;;;;4.08;76.33;101589.48;129961;1286;96652;-81
2021/11/10 08:04:48;;;;;;;62.70;35.40;;;;;;;4.08;76.28;101588.57;129923;1286;97717;-81
2021/11/10 08:07:51;;;;;;;54.70;32.30;;;;;;;4.07;76.32;101589.67;130088;1286;97840;-80
2021/11/10 08:10:56;;;;;;;75.90;42.20;;;;;;;4.11;76.38;101584.55;129902;1286;97058;-81
2021/11/10 08:13:59;;;;;;;75.70;41.80;;;;;;;4.16;76.48;101581.14;130082;1286;97766;-82
2021/11/10 08:17:02;;;;;;;55.90;33.10;;;;;;;4.19;76.53;101583.45;130045;1285;97283;-81
2021/11/10 08:20:07;;;;;;;60.90;36.00;;;;;;;4.21;76.38;101584.91;130070;1286;96724;-80
2021/11/10 08:23:09;;;;;;;64.60;38.90;;;;;;;4.21;76.57;101582.27;130009;1286;97656;-82
2021/11/10 08:26:12;;;;;;;72.50;42.40;;;;;;;4.22;76.54;101579.55;129991;1286;96670;-79
2021/11/10 08:29:15;;;;;;;65.10;36.10;;;;;;;4.25;76.63;101574.51;130174;1286;97413;-78
2021/11/10 08:32:18;;;;;;;49.10;29.80;;;;;;;4.28;76.72;101569.92;130099;1286;97712;-81
2021/11/10 08:35:22;;;;;;;49.30;28.90;;;;;;;4.35;76.79;101568.54;130055;1284;96709;-79
2021/11/10 08:38:26;;;;;;;49.90;29.00;;;;;;;4.44;76.83;101569.11;130124;1287;96732;-81
2021/11/10 08:41:29;;;;;;;52.20;30.60;;;;;;;4.53;76.84;101565.98;130072;1284;96661;-80
2021/11/10 08:44:33;;;;;;;48.10;28.00;;;;;;;4.61;76.83;101562.89;129994;1287;96658;-75
2021/11/10 08:47:37;;;;;;;36.30;22.30;;;;;;;4.67;76.83;101562.77;130121;1287;96640;-81
2021/11/10 08:50:42;;;;;;;34.00;20.10;;;;;;;4.69;77.03;101561.56;130101;1286;96649;-81
2021/11/10 08:53:45;;;;;;;33.70;19.90;;;;;;;4.74;77.05;101554.98;130239;1287;96915;-81
2021/11/10 08:56:48;;;;;;;28.60;17.20;;;;;;;4.82;77.02;101552.08;130557;1286;97630;-79
2021/11/10 08:59:50;;;;;;;37.50;20.50;;;;;;;4.94;77.10;101545.81;130062;1287;96732;-80
2021/11/10 09:02:53;;;;;;;36.80;21.90;;;;;;;5.05;77.12;101550.60;130281;1284;97379;-80
2021/11/10 09:05:57;;;;;;;40.70;24.30;;;;;;;5.16;76.97;101552.35;130249;1287;96650;-80
2021/11/10 09:08:59;;;;;;;39.10;24.40;;;;;;;5.23;77.06;101550.14;130327;1286;97660;-85
2021/11/10 09:12:02;;;;;;;42.90;28.20;;;;;;;5.31;77.03;101541.44;129883;1287;97376;-77
2021/11/10 09:15:08;;;;;;;42.70;25.80;;;;;;;5.37;77.01;101540.92;129912;1286;97429;-79
2021/11/10 09:18:11;;;;;;;37.20;22.80;;;;;;;5.42;77.13;101536.17;130044;1286;97730;-79
2021/11/10 09:21:14;;;;;;;35.10;22.20;;;;;;;5.51;77.15;101534.45;130115;1286;96668;-82
2021/11/10 09:24:17;;;;;;;35.80;21.70;;;;;;;5.62;77.02;101537.00;130002;1287;97863;-83
2021/11/10 09:27:20;;;;;;;33.20;21.10;;;;;;;5.74;76.94;101531.88;130060;1286;97685;-81
2021/11/10 09:30:23;;;;;;;33.90;21.40;;;;;;;5.84;76.88;101531.63;130078;1287;96671;-82
2021/11/10 09:33:26;;;;;;;34.90;21.20;;;;;;;5.92;77.06;101523.56;130212;1286;96652;-79
2021/11/10 09:36:29;;;;;;;32.00;20.60;;;;;;;6.00;77.10;101518.90;129818;1286;97650;-77
2021/11/10 09:39:32;;;;;;;33.70;20.10;;;;;;;6.05;77.05;101509.73;129882;1284;96754;-77
2021/11/10 09:42:36;;;;;;;32.30;19.10;;;;;;;6.11;77.08;101504.09;129874;1286;97307;-81
2021/11/10 09:45:39;;;;;;;31.20;19.00;;;;;;;6.21;77.11;101492.91;130038;1286;96956;-81
2021/11/10 09:48:42;;;;;;;28.30;17.90;;;;;;;6.33;77.20;101493.20;129941;1286;96726;-81
2021/11/10 09:51:49;;;;;;;27.30;17.80;;;;;;;6.47;77.23;101492.35;130020;1286;96720;-82
2021/11/10 09:54:51;;;;;;;26.80;17.70;;;;;;;6.59;77.05;101494.57;130195;1285;96654;-85
2021/11/10 09:57:56;;;;;;;27.50;16.40;;;;;;;6.69;76.84;101491.64;130244;1287;97143;-85
2021/11/10 10:01:02;;;;;;;24.90;16.00;;;;;;;6.77;76.66;101493.45;130050;1284;96637;-84
2021/11/10 10:04:07;;;;;;;22.60;14.30;;;;;;;6.81;76.61;101492.80;130025;1287;97394;-85
2021/11/10 10:07:11;;;;;;;22.10;13.50;;;;;;;6.86;76.64;101493.55;130007;1286;96743;-84
2021/11/10 10:10:14;;;;;;;23.90;16.00;;;;;;;6.97;76.97;101490.22;130027;1286;96630;-84
2021/11/10 10:13:18;;;;;;;23.30;14.70;;;;;;;7.09;77.01;101485.52;130038;1284;97662;-83
2021/11/10 10:16:23;;;;;;;22.70;14.60;;;;;;;7.22;76.81;101481.02;130014;1286;96640;-82
2021/11/10 10:19:39;;;;;;;23.10;15.30;;;;;;;7.31;76.62;101479.66;129949;1284;97526;-85
2021/11/10 10:22:47;;;;;;;24.30;15.50;;;;;;;7.40;76.36;101471.95;130174;1285;97297;-85
2021/11/10 10:25:53;;;;;;;23.70;15.40;;;;;;;7.48;76.29;101470.41;130428;1285;96681;-82
2021/11/10 10:28:58;;;;;;;21.80;13.70;;;;;;;7.54;76.40;101461.54;129981;1286;98287;-79
2021/11/10 10:32:02;;;;;;;113.20;63.80;;;;;;;7.58;76.52;101456.80;129665;1287;103227;-80
2021/11/10 10:35:27;;;;;;;26.00;17.00;;;;;;;7.66;76.52;101456.43;129865;1286;97725;-80
2021/11/10 10:38:34;;;;;;;25.10;15.10;;;;;;;7.79;76.33;101447.21;129925;1287;96647;-76
2021/11/10 10:41:39;;;;;;;19.20;13.40;;;;;;;7.92;76.20;101448.48;129925;1286;96651;-80
2021/11/10 10:44:44;;;;;;;18.20;12.80;;;;;;;7.98;76.13;101440.41;129840;1287;96655;-84
2021/11/10 10:47:57;;;;;;;19.90;13.50;;;;;;;8.06;76.04;101441.64;130031;1286;97758;-86
2021/11/10 10:51:03;;;;;;;22.40;14.10;;;;;;;8.12;76.04;101440.14;129769;1287;97661;-84
2021/11/10 10:54:09;;;;;;;16.80;11.20;;;;;;;8.16;76.02;101436.65;129942;1286;120172;-77
2021/11/10 10:57:14;;;;;;;17.90;11.10;;;;;;;8.21;75.99;101427.80;129960;1286;97326;-80
2021/11/10 11:00:18;;;;;;;30.20;20.80;;;;;;;8.27;75.91;101428.47;129911;1287;97370;-78
2021/11/10 11:03:31;;;;;;;19.00;12.70;;;;;;;8.34;75.99;101432.27;129960;1287;97643;-81
2021/11/10 11:06:37;;;;;;;16.80;12.10;;;;;;;8.44;75.48;101425.13;130086;1286;97779;-80
2021/11/10 11:09:43;;;;;;;18.10;11.90;;;;;;;8.53;75.56;101412.60;130040;1286;97632;-82
2021/11/10 11:12:52;;;;;;;18.20;11.20;;;;;;;8.59;75.24;101411.10;130013;1286;97720;-81
2021/11/10 11:16:04;;;;;;;16.00;10.50;;;;;;;8.63;74.52;101406.76;130027;1287;97725;-80
2021/11/10 11:19:19;;;;;;;;;;;;;;;8.68;74.43;101401.99;130019;1286;97729;-81
2021/11/10 11:22:23;;;;;;;15.90;10.50;;;;;;;8.68;74.28;101391.65;129882;1287;96662;-82
2021/11/10 11:25:29;;;;;;;17.40;10.40;;;;;;;8.71;73.92;101385.09;130018;1287;97747;-80
2021/11/10 11:28:37;;;;;;;15.10;8.90;;;;;;;8.72;73.99;101381.44;130061;1287;98964;-79
2021/11/10 11:31:40;;;;;;;12.60;7.40;;;;;;;8.75;73.73;101375.72;130149;1284;98219;-81
2021/11/10 11:34:55;;;;;;;13.40;9.10;;;;;;;8.80;73.20;101368.29;130014;1283;96732;-85
2021/11/10 11:38:01;;;;;;;12.30;8.80;;;;;;;8.89;73.03;101359.97;130260;1286;96662;-77
2021/11/10 11:41:04;;;;;;;12.40;8.70;;;;;;;8.98;73.42;101355.58;129905;1286;97892;-82
2021/11/10 11:44:06;;;;;;;13.60;9.50;;;;;;;9.05;73.34;101347.39;130081;1286;96663;-79
2021/11/10 11:47:09;;;;;;;13.20;8.30;;;;;;;9.12;72.84;101343.71;130085;1285;97734;-75
2021/11/10 11:50:12;;;;;;;10.40;7.90;;;;;;;9.16;72.94;101335.72;129905;1286;96640;-81
2021/11/10 11:53:15;;;;;;;12.40;8.20;;;;;;;9.19;72.82;101331.59;129994;1285;98417;-75
2021/11/10 11:56:19;;;;;;;11.10;7.70;;;;;;;9.20;72.58;101326.53;129893;1286;97804;-79
2021/11/10 11:59:23;;;;;;;11.40;7.50;;;;;;;9.21;72.48;101317.83;130218;1286;97422;-78
2021/11/10 12:02:29;;;;;;;11.90;7.80;;;;;;;9.22;72.44;101313.27;130414;1284;96575;-79
2021/11/10 12:05:32;;;;;;;10.60;7.40;;;;;;;9.23;71.97;101310.89;130475;1286;96640;-79
2021/11/10 12:08:39;;;;;;;11.80;8.00;;;;;;;9.24;71.83;101309.39;130272;1286;97400;-79
2021/11/10 12:11:42;;;;;;;9.40;7.10;;;;;;;9.25;71.71;101307.53;130115;1285;97847;-77
2021/11/10 12:14:58;;;;;;;10.10;6.50;;;;;;;9.25;71.38;101304.50;130034;1287;96754;-77
2021/11/10 12:18:10;;;;;;;9.70;6.50;;;;;;;9.26;71.37;101302.33;130107;1287;96652;-77
2021/11/10 12:21:14;;;;;;;9.50;6.50;;;;;;;9.25;70.92;101311.45;130079;1287;97193;-76
2021/11/10 12:24:23;;;;;;;9.60;6.00;;;;;;;9.26;71.28;101313.48;130068;1285;97240;-77
2021/11/10 12:27:35;;;;;;;8.70;6.10;;;;;;;9.24;71.09;101313.41;130008;1287;96976;-76
2021/11/10 12:30:44;;;;;;;10.80;6.60;;;;;;;9.24;70.65;101304.35;129970;1286;96684;-76
2021/11/10 12:33:47;;;;;;;10.00;6.80;;;;;;;9.28;70.97;101301.60;130002;1286;96662;-77
2021/11/10 12:36:51;;;;;;;10.80;6.70;;;;;;;9.33;70.60;101296.94;129970;1287;97745;-76
2021/11/10 12:40:12;;;;;;;11.40;7.60;;;;;;;9.36;70.85;101294.59;130022;1287;96678;-77
2021/11/10 12:43:18;;;;;;;10.30;6.70;;;;;;;9.40;70.68;101285.90;129985;1286;97425;-77
2021/11/10 12:46:22;;;;;;;11.10;7.20;;;;;;;9.40;70.75;101281.09;130058;1286;97473;-76
2021/11/10 12:49:25;;;;;;;10.20;6.70;;;;;;;9.42;70.17;101278.52;130090;1286;96639;-77
2021/11/10 12:52:43;;;;;;;11.30;7.30;;;;;;;9.43;70.24;101270.42;130167;1286;96738;-77
2021/11/10 12:55:54;;;;;;;9.90;6.40;;;;;;;9.43;69.83;101263.65;130109;1286;97738;-77
2021/11/10 12:59:01;;;;;;;10.00;6.40;;;;;;;9.42;70.05;101262.70;130095;1286;97828;-76
2021/11/10 13:02:13;;;;;;;8.70;6.30;;;;;;;9.40;69.84;101266.20;129976;1287;97869;-77
2021/11/10 13:05:20;;;;;;;9.80;6.20;;;;;;;9.39;69.93;101265.38;130055;1287;97493;-78
2021/11/10 13:08:29;;;;;;;8.70;6.10;;;;;;;9.36;69.89;101269.90;130279;1285;97461;-78
2021/11/10 13:11:35;;;;;;;10.50;7.30;;;;;;;9.33;69.72;101270.48;130189;1287;96660;-78
2021/11/10 13:14:44;;;;;;;9.60;6.40;;;;;;;9.31;70.20;101263.71;130290;1286;96633;-77
2021/11/10 13:17:47;;;;;;;9.00;5.70;;;;;;;9.29;70.33;101261.79;130383;1286;97655;-78
2021/11/10 13:20:51;;;;;;;10.80;6.00;;;;;;;9.27;70.19;101252.13;130424;1286;96706;-78
2021/11/10 13:24:10;;;;;;;9.50;6.60;;;;;;;9.28;70.31;101253.30;130941;1286;96653;-78
2021/11/10 13:27:13;;;;;;;9.10;6.00;;;;;;;9.33;70.21;101249.00;131028;1285;96733;-78
2021/11/10 13:30:29;;;;;;;14.60;6.90;;;;;;;9.39;70.23;101251.56;130494;1287;97619;-78
2021/11/10 13:33:35;;;;;;;9.50;6.60;;;;;;;9.43;69.84;101249.42;130549;1286;96640;-78
2021/11/10 13:36:39;;;;;;;11.60;7.00;;;;;;;9.42;69.68;101246.73;130602;1286;97278;-78
2021/11/10 13:39:42;;;;;;;10.90;6.90;;;;;;;9.39;69.78;101246.20;130567;1286;96720;-77
2021/11/10 13:42:49;;;;;;;9.80;6.50;;;;;;;9.37;69.83;101247.11;130461;1285;96757;-78
2021/11/10 13:45:53;;;;;;;11.70;7.10;;;;;;;9.35;69.82;101244.98;130483;1286;96677;-78
2021/11/10 13:49:00;;;;;;;9.90;7.00;;;;;;;9.33;69.67;101243.91;130632;1286;97300;-77
2021/11/10 13:52:06;;;;;;;10.30;7.10;;;;;;;9.28;69.66;101236.11;130006;1287;96652;-77
2021/11/10 13:55:10;;;;;;;10.10;6.70;;;;;;;9.24;69.87;101233.42;130080;1286;96636;-78
2021/11/10 13:58:15;;;;;;;11.80;7.50;;;;;;;9.19;69.87;101232.52;130068;1286;97720;-78